Time;durP1;ratioP1;P1;durP2;ratioP2;P2;SDS_P1;SDS_P2;PMS_P1;PMS_P2;Temp;Humidity;BMP_temperature;BMP_pressure;BME280_temperature;BME280_humidity;BME280_pressure;Samples;Min_cycle;Max_cycle;Signal;HPM_P1;HPM_P2
2022/08/29 00:00:56;;;;;;;8.07;3.10;;;16.70;99.90;;;;;;5051480;28;20123;-81
2022/08/29 00:03:21;;;;;;;6.50;2.63;;;16.60;99.90;;;;;;5033472;28;20041;-82
2022/08/29 00:05:47;;;;;;;5.88;2.80;;;16.70;99.90;;;;;;5048914;28;20122;-81
2022/08/29 00:08:13;;;;;;;8.05;2.75;;;16.60;99.90;;;;;;5051219;28;20037;-81
2022/08/29 00:10:39;;;;;;;5.65;2.60;;;16.60;99.90;;;;;;5051154;28;20044;-81
2022/08/29 00:13:07;;;;;;;5.47;2.70;;;16.60;99.90;;;;;;5051029;28;20214;-81
2022/08/29 00:15:33;;;;;;;9.85;3.30;;;16.60;99.90;;;;;;5027866;28;20049;-81
2022/08/29 00:17:59;;;;;;;8.02;2.95;;;16.60;99.90;;;;;;5034804;28;20036;-80
2022/08/29 00:20:27;;;;;;;8.05;2.97;;;16.60;99.90;;;;;;5025357;28;20384;-80
2022/08/29 00:22:53;;;;;;;5.45;2.80;;;16.60;99.90;;;;;;5048683;28;20033;-81
2022/08/29 00:25:19;;;;;;;4.78;2.35;;;16.50;99.90;;;;;;5050497;28;20051;-81
2022/08/29 00:27:45;;;;;;;8.98;3.53;;;16.40;99.90;;;;;;5057601;28;20052;-80
2022/08/29 00:30:11;;;;;;;6.35;3.20;;;16.50;99.90;;;;;;5049563;28;20041;-81
2022/08/29 00:32:37;;;;;;;6.22;3.15;;;16.50;99.90;;;;;;5030619;28;20040;-80
2022/08/29 00:35:05;;;;;;;6.00;3.10;;;16.50;99.90;;;;;;5050318;28;20033;-81
2022/08/29 00:37:31;;;;;;;6.88;3.10;;;16.40;99.90;;;;;;5050468;28;20037;-82
2022/08/29 00:39:57;;;;;;;9.90;3.28;;;16.50;99.90;;;;;;5049864;28;20376;-81
2022/08/29 00:42:22;;;;;;;6.47;3.15;;;16.30;99.90;;;;;;5049109;28;20183;-82
2022/08/29 00:44:48;;;;;;;7.60;3.35;;;16.40;99.90;;;;;;5048783;28;20459;-82
2022/08/29 00:47:18;;;;;;;8.55;3.22;;;16.30;99.90;;;;;;5048599;28;20108;-81
2022/08/29 00:49:47;;;;;;;7.97;2.90;;;16.40;99.90;;;;;;5046432;28;20063;-81
2022/08/29 00:52:21;;;;;;;7.45;3.40;;;16.40;99.90;;;;;;5050215;28;20325;-82
2022/08/29 00:54:51;;;;;;;7.95;3.00;;;16.40;99.90;;;;;;5059553;28;20032;-81
2022/08/29 00:57:19;;;;;;;8.63;2.83;;;16.30;99.90;;;;;;5047865;28;20045;-82
2022/08/29 00:59:46;;;;;;;8.82;3.05;;;16.40;99.90;;;;;;5044927;28;20037;-82
2022/08/29 01:02:12;;;;;;;6.22;2.75;;;16.40;99.90;;;;;;5050068;28;20394;-83
2022/08/29 01:04:38;;;;;;;9.25;3.08;;;16.40;99.90;;;;;;5037117;28;20025;-81
2022/08/29 01:07:04;;;;;;;6.40;2.75;;;16.50;99.90;;;;;;5046615;28;20037;-81
2022/08/29 01:09:31;;;;;;;5.68;2.95;;;16.50;99.90;;;;;;5046604;28;20090;-81
2022/08/29 01:12:15;;;;;;;10.02;3.15;;;16.50;99.90;;;;;;5049217;28;20426;-83
2022/08/29 01:14:58;;;;;;;6.80;2.90;;;16.50;99.90;;;;;;5047139;28;20051;-81
2022/08/29 01:17:26;;;;;;;7.90;2.70;;;16.40;99.90;;;;;;5049892;28;20108;-81
2022/08/29 01:20:20;;;;;;;4.82;2.92;;;16.40;99.90;;;;;;5050419;28;20418;-81
2022/08/29 01:22:59;;;;;;;8.15;2.47;;;16.40;99.90;;;;;;5047568;28;20033;-81
2022/08/29 01:25:30;;;;;;;7.97;2.90;;;16.40;99.90;;;;;;5028281;28;20130;-80
2022/08/29 01:28:08;;;;;;;8.07;2.85;;;16.40;99.90;;;;;;5046261;28;20040;-80
2022/08/29 01:30:34;;;;;;;7.78;3.38;;;16.40;99.90;;;;;;5047715;28;20132;-81
2022/08/29 01:32:59;;;;;;;6.45;2.80;;;16.50;99.90;;;;;;5049497;28;20033;-81
2022/08/29 01:35:26;;;;;;;6.15;2.80;;;16.50;99.90;;;;;;5046864;28;20039;-81
2022/08/29 01:37:53;;;;;;;6.60;2.83;;;16.40;99.90;;;;;;5032872;28;20108;-82
2022/08/29 01:40:19;;;;;;;6.65;3.03;;;16.50;99.90;;;;;;5047481;28;20045;-82
2022/08/29 01:42:45;;;;;;;7.00;2.70;;;16.50;99.90;;;;;;5031183;28;20044;-81
2022/08/29 01:45:11;;;;;;;5.05;2.42;;;16.40;99.90;;;;;;5049206;28;20454;-82
2022/08/29 01:47:38;;;;;;;9.40;3.08;;;16.50;99.90;;;;;;5041869;28;20033;-82
2022/08/29 01:50:09;;;;;;;6.10;2.70;;;16.50;99.90;;;;;;5049264;28;20052;-81
2022/08/29 01:52:34;;;;;;;6.32;2.42;;;16.50;99.90;;;;;;5048416;28;20110;-81
2022/08/29 01:55:00;;;;;;;6.78;2.65;;;16.50;99.90;;;;;;5049511;28;20037;-81
2022/08/29 01:57:25;;;;;;;6.13;2.53;;;16.50;99.90;;;;;;5045090;28;20044;-81
2022/08/29 01:59:51;;;;;;;5.90;2.80;;;16.40;99.90;;;;;;5049342;28;20107;-82
2022/08/29 02:02:23;;;;;;;7.15;2.80;;;16.50;99.90;;;;;;5046968;28;20036;-83
2022/08/29 02:04:49;;;;;;;6.25;2.78;;;16.50;99.90;;;;;;5049510;28;20037;-81
2022/08/29 02:07:17;;;;;;;5.00;2.20;;;16.50;99.90;;;;;;5048337;28;20119;-81
2022/08/29 02:09:44;;;;;;;5.40;2.45;;;16.60;99.90;;;;;;5048706;28;20060;-81
2022/08/29 02:12:09;;;;;;;6.00;2.30;;;16.60;99.90;;;;;;5049431;28;20380;-81
2022/08/29 02:14:35;;;;;;;9.20;2.70;;;16.60;99.90;;;;;;5047719;28;20124;-83
2022/08/29 02:17:06;;;;;;;5.70;2.40;;;16.60;99.90;;;;;;5033489;28;20117;-81
2022/08/29 02:19:33;;;;;;;4.97;2.22;;;16.60;99.90;;;;;;5028084;28;20116;-83
2022/08/29 02:21:59;;;;;;;7.10;2.63;;;16.50;99.90;;;;;;5040454;28;20094;-80
2022/08/29 02:24:25;;;;;;;6.07;2.63;;;16.50;99.90;;;;;;5047713;28;20048;-81
2022/08/29 02:26:50;;;;;;;7.25;2.50;;;16.40;99.90;;;;;;5050313;28;20121;-81
2022/08/29 02:29:16;;;;;;;5.85;2.33;;;16.40;99.90;;;;;;5051813;28;20029;-81
2022/08/29 02:31:42;;;;;;;6.00;2.30;;;16.40;99.90;;;;;;5053005;28;20036;-82
2022/08/29 02:34:08;;;;;;;8.25;2.70;;;16.40;99.90;;;;;;5052748;28;20037;-81
2022/08/29 02:36:35;;;;;;;6.05;2.22;;;16.40;99.90;;;;;;5053755;28;20453;-82
2022/08/29 02:39:00;;;;;;;6.53;2.13;;;16.40;99.90;;;;;;5052385;28;20140;-81
2022/08/29 02:41:26;;;;;;;7.35;2.60;;;16.30;99.90;;;;;;5053873;28;20463;-82
2022/08/29 02:43:52;;;;;;;5.40;2.50;;;16.30;99.90;;;;;;5051762;28;20480;-82
2022/08/29 02:46:18;;;;;;;7.72;2.50;;;16.30;99.90;;;;;;5053817;28;20037;-82
2022/08/29 02:48:45;;;;;;;5.35;2.70;;;16.30;99.90;;;;;;5036347;28;20176;-83
2022/08/29 02:51:19;;;;;;;7.03;2.60;;;16.30;99.90;;;;;;5026961;28;20494;-83
2022/08/29 02:53:44;;;;;;;5.75;2.40;;;16.30;99.90;;;;;;5046815;28;20380;-83
2022/08/29 02:56:10;;;;;;;5.78;2.47;;;16.30;99.90;;;;;;5052788;28;20094;-82
2022/08/29 02:58:35;;;;;;;7.28;2.50;;;16.30;99.90;;;;;;5053154;28;20033;-82
2022/08/29 03:01:02;;;;;;;8.75;2.78;;;16.10;99.90;;;;;;5023358;28;20034;-83
2022/08/29 03:03:27;;;;;;;9.55;2.45;;;16.20;99.90;;;;;;5050917;28;20120;-83
2022/08/29 03:05:55;;;;;;;5.03;2.33;;;16.10;99.90;;;;;;5051469;28;20570;-83
2022/08/29 03:08:21;;;;;;;9.18;2.60;;;16.10;99.90;;;;;;5050869;28;21552;-84
2022/08/29 03:10:46;;;;;;;7.82;2.58;;;16.10;99.90;;;;;;5048848;28;20029;-83
2022/08/29 03:13:12;;;;;;;7.28;2.50;;;16.10;99.90;;;;;;5045715;28;20025;-83
2022/08/29 03:15:39;;;;;;;9.75;2.40;;;16.20;99.90;;;;;;5047807;28;20041;-83
2022/08/29 03:18:05;;;;;;;7.47;2.38;;;16.10;99.90;;;;;;5052655;28;20033;-83
2022/08/29 03:20:34;;;;;;;5.50;2.35;;;16.10;99.90;;;;;;5052726;28;20040;-83
2022/08/29 03:22:59;;;;;;;7.30;2.35;;;16.10;99.90;;;;;;5042431;28;20159;-83
2022/08/29 03:25:25;;;;;;;5.63;2.00;;;16.10;99.90;;;;;;5052409;28;20124;-83
2022/08/29 03:27:51;;;;;;;6.22;2.65;;;16.10;99.90;;;;;;5035647;28;20057;-83
2022/08/29 03:30:17;;;;;;;4.13;2.25;;;16.20;99.90;;;;;;5052918;28;20450;-83
2022/08/29 03:32:44;;;;;;;4.47;2.20;;;16.20;99.90;;;;;;5050628;28;20029;-83
2022/08/29 03:35:10;;;;;;;6.35;2.15;;;16.20;99.90;;;;;;5052680;28;20428;-82
2022/08/29 03:37:36;;;;;;;5.50;2.17;;;16.20;99.90;;;;;;5035323;28;20041;-82
2022/08/29 03:40:04;;;;;;;5.20;2.28;;;16.20;99.90;;;;;;5030000;28;20116;-83
2022/08/29 03:42:30;;;;;;;6.60;2.08;;;16.20;99.90;;;;;;5050972;28;20128;-84
2022/08/29 03:44:55;;;;;;;7.15;2.70;;;16.20;99.90;;;;;;5046309;28;20124;-83
2022/08/29 03:47:21;;;;;;;6.38;2.30;;;16.20;99.90;;;;;;5046679;28;20033;-83
2022/08/29 03:49:46;;;;;;;7.95;2.83;;;16.10;99.90;;;;;;5035035;28;20044;-85
2022/08/29 03:52:12;;;;;;;5.85;2.50;;;16.30;99.90;;;;;;5049042;28;20029;-83
2022/08/29 03:54:37;;;;;;;7.03;2.70;;;16.30;99.90;;;;;;5033218;28;20035;-84
2022/08/29 03:57:05;;;;;;;5.72;2.33;;;16.30;99.90;;;;;;5049911;28;20520;-84
2022/08/29 03:59:30;;;;;;;7.45;2.70;;;16.20;99.90;;;;;;5033198;28;20119;-84
2022/08/29 04:01:57;;;;;;;5.18;2.05;;;16.30;99.90;;;;;;5050402;28;20124;-84
2022/08/29 04:07:08;;;;;;;8.55;2.28;;;16.20;99.90;;;;;;5046034;28;20049;-83
2022/08/29 04:09:35;;;;;;;7.18;2.40;;;16.10;99.90;;;;;;5046843;28;20041;-83
2022/08/29 04:12:01;;;;;;;6.88;2.30;;;16.10;99.90;;;;;;5042628;28;20044;-85
2022/08/29 04:14:28;;;;;;;9.02;2.50;;;16.10;99.90;;;;;;5030945;28;20033;-85
2022/08/29 04:16:53;;;;;;;8.00;2.70;;;16.10;99.90;;;;;;5045005;28;20152;-83
2022/08/29 04:19:20;;;;;;;7.05;2.42;;;16.10;99.90;;;;;;5050804;28;20037;-85
2022/08/29 04:21:47;;;;;;;5.43;2.15;;;16.10;99.90;;;;;;5051545;28;20134;-84
2022/08/29 04:24:14;;;;;;;6.32;2.40;;;16.00;99.90;;;;;;5046360;28;20037;-83
2022/08/29 04:26:40;;;;;;;7.53;2.60;;;16.00;99.90;;;;;;5050414;28;20041;-84
2022/08/29 04:29:08;;;;;;;7.70;2.17;;;16.00;99.90;;;;;;5041292;28;20084;-84
2022/08/29 04:31:35;;;;;;;6.60;2.30;;;16.00;99.90;;;;;;5030554;28;20045;-83
2022/08/29 04:34:03;;;;;;;7.20;2.47;;;16.00;99.90;;;;;;5050377;28;20049;-83
2022/08/29 04:36:28;;;;;;;4.88;2.90;;;15.90;99.90;;;;;;5048004;28;20048;-83
2022/08/29 04:38:54;;;;;;;5.60;2.42;;;15.90;99.90;;;;;;5025441;28;20040;-84
2022/08/29 04:41:20;;;;;;;5.72;2.40;;;15.90;99.90;;;;;;5044048;28;20063;-84
2022/08/29 04:43:47;;;;;;;5.00;2.53;;;15.90;99.90;;;;;;5046160;28;20036;-83
2022/08/29 04:46:16;;;;;;;10.52;2.70;;;15.90;99.90;;;;;;5048225;28;20098;-84
2022/08/29 04:48:42;;;;;;;8.30;2.72;;;15.90;99.90;;;;;;5047927;28;20039;-83
2022/08/29 04:51:07;;;;;;;8.10;2.47;;;15.80;99.90;;;;;;5022087;28;20120;-84
2022/08/29 04:53:33;;;;;;;5.60;2.45;;;15.80;99.90;;;;;;5029063;28;20036;-84
2022/08/29 04:56:01;;;;;;;7.78;3.00;;;15.80;99.90;;;;;;5025490;28;20044;-84
2022/08/29 04:58:27;;;;;;;9.27;2.53;;;15.80;99.90;;;;;;5040613;28;20034;-84
2022/08/29 05:00:54;;;;;;;5.25;2.30;;;15.80;99.90;;;;;;5048653;28;20080;-84
2022/08/29 05:03:21;;;;;;;5.50;2.25;;;15.90;99.90;;;;;;5045774;28;20049;-84
2022/08/29 05:05:58;;;;;;;3.47;2.25;;;15.80;99.90;;;;;;5045050;28;20041;-84
2022/08/29 05:08:24;;;;;;;7.00;2.30;;;15.80;99.90;;;;;;5028058;28;20041;-83
2022/08/29 05:10:50;;;;;;;6.60;2.50;;;15.80;99.90;;;;;;5029729;28;20090;-83
2022/08/29 05:13:16;;;;;;;9.73;2.42;;;15.80;99.90;;;;;;5047479;28;20407;-83
2022/08/29 05:15:41;;;;;;;6.97;2.60;;;15.90;99.90;;;;;;5048972;28;20566;-83
2022/08/29 05:18:07;;;;;;;7.15;2.42;;;15.90;99.90;;;;;;5048017;28;20036;-84
2022/08/29 05:20:32;;;;;;;4.63;2.50;;;15.90;99.90;;;;;;5049741;28;20037;-83
2022/08/29 05:22:58;;;;;;;7.68;2.53;;;15.90;99.90;;;;;;5021895;28;20255;-83
2022/08/29 05:25:24;;;;;;;6.40;2.60;;;16.00;99.90;;;;;;5045499;28;20461;-83
2022/08/29 05:27:50;;;;;;;8.93;2.92;;;16.00;99.90;;;;;;5043557;28;20108;-84
2022/08/29 05:30:17;;;;;;;7.85;3.22;;;16.00;99.90;;;;;;5034758;28;20051;-83
2022/08/29 05:32:43;;;;;;;5.50;2.72;;;16.00;99.90;;;;;;5051620;28;20146;-82
2022/08/29 05:35:09;;;;;;;5.68;2.70;;;16.10;99.90;;;;;;5046559;28;20102;-83
2022/08/29 05:37:35;;;;;;;7.53;3.13;;;16.10;99.90;;;;;;5042329;28;20045;-83
2022/08/29 05:40:00;;;;;;;6.93;2.65;;;16.10;99.90;;;;;;5050628;28;20048;-82
2022/08/29 05:42:26;;;;;;;7.70;2.53;;;16.10;99.90;;;;;;5051912;28;20556;-83
2022/08/29 05:44:52;;;;;;;8.63;3.08;;;16.10;99.90;;;;;;5049807;28;20155;-82
2022/08/29 05:47:19;;;;;;;5.88;3.17;;;16.10;99.90;;;;;;5050618;28;20045;-84
2022/08/29 05:49:46;;;;;;;7.45;2.97;;;16.20;99.90;;;;;;5049631;28;20079;-83
2022/08/29 05:52:14;;;;;;;6.30;2.90;;;16.20;99.90;;;;;;5030382;28;20033;-82
2022/08/29 05:54:41;;;;;;;8.25;2.90;;;16.30;99.90;;;;;;5047008;28;20693;-82
2022/08/29 05:57:08;;;;;;;7.43;2.88;;;16.30;99.90;;;;;;5043084;28;20368;-83
2022/08/29 05:59:35;;;;;;;5.68;2.88;;;16.30;99.90;;;;;;5047198;28;20571;-82
2022/08/29 06:02:01;;;;;;;5.22;2.58;;;16.40;99.90;;;;;;5030493;28;20072;-83
2022/08/29 06:04:27;;;;;;;10.48;2.65;;;16.40;99.90;;;;;;5048194;28;20044;-82
2022/08/29 06:06:53;;;;;;;10.15;3.10;;;16.40;99.90;;;;;;5049565;28;20400;-85
2022/08/29 06:09:18;;;;;;;8.90;2.85;;;16.50;99.90;;;;;;5040113;28;20040;-82
2022/08/29 06:11:49;;;;;;;7.63;2.25;;;16.50;99.90;;;;;;5051065;28;20455;-81
2022/08/29 06:14:15;;;;;;;7.47;2.22;;;16.60;99.90;;;;;;5051946;28;20045;-82
2022/08/29 06:16:41;;;;;;;6.82;2.38;;;16.70;99.90;;;;;;5051993;28;20124;-81
2022/08/29 06:19:07;;;;;;;6.60;2.17;;;16.80;99.90;;;;;;5051420;28;20041;-81
2022/08/29 06:21:33;;;;;;;9.57;2.53;;;16.80;99.90;;;;;;5051705;28;20037;-82
2022/08/29 06:23:58;;;;;;;9.48;2.45;;;16.90;99.90;;;;;;5034500;28;20048;-81
2022/08/29 06:26:24;;;;;;;6.03;2.20;;;17.00;99.90;;;;;;5051440;28;20037;-81
2022/08/29 06:28:50;;;;;;;6.82;2.10;;;17.10;99.90;;;;;;5051487;28;20037;-80
2022/08/29 06:31:25;;;;;;;5.22;2.15;;;17.10;99.90;;;;;;5050803;28;20065;-82
2022/08/29 06:33:53;;;;;;;6.88;2.20;;;17.20;99.90;;;;;;5051391;28;20039;-80
2022/08/29 06:36:19;;;;;;;7.75;2.28;;;17.40;99.90;;;;;;5050946;28;20052;-81
2022/08/29 06:38:45;;;;;;;5.53;2.17;;;17.30;99.90;;;;;;5051285;28;20130;-80
2022/08/29 06:41:14;;;;;;;7.30;2.20;;;17.40;99.90;;;;;;5035266;28;20402;-81
2022/08/29 06:43:41;;;;;;;8.15;2.42;;;17.40;99.90;;;;;;5050681;28;20116;-81
2022/08/29 06:46:07;;;;;;;6.75;2.60;;;17.50;99.90;;;;;;5051070;28;20041;-81
2022/08/29 06:48:34;;;;;;;6.47;2.03;;;17.60;99.90;;;;;;5050592;28;20037;-81
2022/08/29 06:51:01;;;;;;;6.75;2.28;;;17.70;99.90;;;;;;5034205;28;20033;-80
2022/08/29 06:53:27;;;;;;;11.55;2.53;;;17.70;99.90;;;;;;5051196;28;20470;-82
2022/08/29 06:55:53;;;;;;;11.63;2.90;;;17.80;99.90;;;;;;5050470;28;20470;-80
2022/08/29 06:58:19;;;;;;;6.80;2.65;;;17.80;99.90;;;;;;5051292;28;20499;-81
2022/08/29 07:00:45;;;;;;;8.52;2.90;;;17.90;99.90;;;;;;5034213;28;20037;-80
2022/08/29 07:03:11;;;;;;;6.30;2.30;;;18.00;99.90;;;;;;5050446;28;20451;-80
2022/08/29 07:05:37;;;;;;;8.90;3.40;;;18.00;99.90;;;;;;5034861;28;20072;-79
2022/08/29 07:08:02;;;;;;;16.58;3.33;;;18.00;99.90;;;;;;5050776;28;20541;-80
2022/08/29 07:10:28;;;;;;;11.30;2.88;;;18.00;99.90;;;;;;5034264;28;20040;-80
2022/08/29 07:12:54;;;;;;;13.60;3.45;;;17.90;99.90;;;;;;5054023;28;20041;-80
2022/08/29 07:15:21;;;;;;;8.35;2.80;;;17.90;99.90;;;;;;5054402;28;20041;-80
2022/08/29 07:17:48;;;;;;;6.50;2.55;;;18.00;99.90;;;;;;5054358;28;20048;-80
2022/08/29 07:20:15;;;;;;;9.98;3.45;;;18.10;99.90;;;;;;5054021;28;20041;-80
2022/08/29 07:22:41;;;;;;;7.47;2.95;;;18.10;99.90;;;;;;5054028;28;20049;-80
2022/08/29 07:25:07;;;;;;;12.15;2.97;;;18.20;99.90;;;;;;5054352;28;20407;-80
2022/08/29 07:27:34;;;;;;;14.23;3.17;;;18.20;99.90;;;;;;5054280;28;20137;-80
2022/08/29 07:30:01;;;;;;;9.05;2.65;;;18.20;99.90;;;;;;5038199;28;20072;-81
2022/08/29 07:32:27;;;;;;;11.30;2.92;;;18.20;99.90;;;;;;5053898;28;20044;-80
2022/08/29 07:34:53;;;;;;;10.82;3.20;;;18.20;99.90;;;;;;5053615;28;20025;-80
2022/08/29 07:37:19;;;;;;;14.30;3.75;;;18.20;99.90;;;;;;5053590;28;20091;-80
2022/08/29 07:39:44;;;;;;;10.70;3.20;;;18.30;99.90;;;;;;5053896;28;20398;-80
2022/08/29 07:42:10;;;;;;;9.80;2.85;;;18.40;99.90;;;;;;5054463;28;20045;-80
2022/08/29 07:44:36;;;;;;;13.68;3.45;;;18.50;99.90;;;;;;5036913;28;20109;-82
2022/08/29 07:47:01;;;;;;;13.75;3.08;;;18.60;99.90;;;;;;5053807;28;20041;-81
2022/08/29 07:49:29;;;;;;;11.63;3.40;;;19.00;99.90;;;;;;5054033;28;20079;-81
2022/08/29 07:51:55;;;;;;;12.70;3.30;;;19.30;99.90;;;;;;5037205;28;20029;-80
2022/08/29 07:54:21;;;;;;;10.63;3.50;;;19.50;99.90;;;;;;5053446;28;20094;-79
2022/08/29 07:56:49;;;;;;;10.25;2.83;;;19.50;99.90;;;;;;5052236;28;20082;-80
2022/08/29 07:59:16;;;;;;;14.25;3.88;;;19.60;99.90;;;;;;5035254;28;20090;-80
2022/08/29 08:01:42;;;;;;;8.50;3.13;;;19.70;99.90;;;;;;5053092;28;20124;-79
2022/08/29 08:04:09;;;;;;;11.68;3.60;;;19.90;99.90;;;;;;5052783;28;20041;-80
2022/08/29 08:06:36;;;;;;;12.05;3.63;;;20.10;99.90;;;;;;5033514;28;20042;-82
2022/08/29 08:09:04;;;;;;;10.57;3.05;;;20.10;99.90;;;;;;5016913;28;20044;-80
2022/08/29 08:11:30;;;;;;;15.88;3.40;;;20.20;99.90;;;;;;5051490;28;20056;-79
2022/08/29 08:13:56;;;;;;;8.82;2.83;;;20.40;99.90;;;;;;5053111;28;20033;-80
2022/08/29 08:16:25;;;;;;;9.07;2.85;;;20.50;99.90;;;;;;5053300;28;20040;-81
2022/08/29 08:18:52;;;;;;;15.18;3.97;;;20.50;99.90;;;;;;5052675;28;20102;-79
2022/08/29 08:21:17;;;;;;;9.50;2.80;;;20.40;99.90;;;;;;5036465;28;20037;-80
2022/08/29 08:23:43;;;;;;;9.00;2.97;;;20.30;99.90;;;;;;5052826;28;20117;-79
2022/08/29 08:26:11;;;;;;;8.25;2.58;;;20.20;99.90;;;;;;5052954;28;20041;-80
2022/08/29 08:28:37;;;;;;;6.70;2.63;;;20.20;99.90;;;;;;5053412;28;20516;-80
2022/08/29 08:31:05;;;;;;;7.47;2.95;;;20.20;99.90;;;;;;5052895;28;20047;-80
2022/08/29 08:33:30;;;;;;;13.40;2.78;;;20.30;99.90;;;;;;5052891;28;20044;-81
2022/08/29 08:35:56;;;;;;;12.00;3.13;;;20.30;99.90;;;;;;5052851;28;20041;-79
2022/08/29 08:38:22;;;;;;;11.50;3.30;;;20.40;99.90;;;;;;5052938;28;20511;-79
2022/08/29 08:40:59;;;;;;;9.52;3.72;;;20.30;99.90;;;;;;5052568;28;20136;-80
2022/08/29 08:43:38;;;;;;;11.77;3.55;;;20.20;99.90;;;;;;5052616;28;20049;-79
2022/08/29 08:46:03;;;;;;;9.43;3.08;;;20.20;99.90;;;;;;5035638;28;20088;-80
2022/08/29 08:48:36;;;;;;;8.77;2.80;;;20.20;99.90;;;;;;5036095;28;20076;-80
2022/08/29 08:51:04;;;;;;;11.45;3.17;;;20.20;99.90;;;;;;5053042;28;20128;-80
2022/08/29 08:53:38;;;;;;;10.23;3.70;;;20.30;99.90;;;;;;5052363;28;20079;-80
2022/08/29 08:56:16;;;;;;;11.38;3.40;;;20.40;99.90;;;;;;5052062;28;20051;-80
2022/08/29 08:58:52;;;;;;;10.13;3.25;;;20.30;99.90;;;;;;5052087;28;20049;-80
2022/08/29 09:01:25;;;;;;;11.60;3.30;;;20.40;99.90;;;;;;5052236;28;20648;-80
2022/08/29 09:04:11;;;;;;;11.25;3.50;;;20.50;99.90;;;;;;5052127;28;20041;-79
2022/08/29 09:07:00;;;;;;;12.07;3.45;;;20.60;99.90;;;;;;5025589;28;20049;-80
2022/08/29 09:10:05;;;;;;;8.60;3.22;;;20.70;99.90;;;;;;5032385;28;20108;-80
2022/08/29 09:13:01;;;;;;;9.07;3.53;;;21.00;99.90;;;;;;5051608;28;20410;-80
2022/08/29 09:15:45;;;;;;;7.63;3.42;;;21.30;99.90;;;;;;5052186;28;20678;-80
2022/08/29 09:18:15;;;;;;;;;;;21.40;99.90;;;;;;5052881;28;20041;-80
2022/08/29 09:20:41;;;;;;;13.77;3.97;;;21.30;99.90;;;;;;5052816;28;20363;-80
2022/08/29 09:23:23;;;;;;;12.75;3.65;;;21.40;99.90;;;;;;5035880;28;20043;-80
2022/08/29 09:25:50;;;;;;;9.23;3.30;;;21.10;99.90;;;;;;5052010;28;20117;-80
2022/08/29 09:28:16;;;;;;;10.15;3.85;;;21.20;99.90;;;;;;5052233;28;20037;-80
2022/08/29 09:31:03;;;;;;;10.05;3.60;;;21.00;99.90;;;;;;5051584;28;20041;-81
2022/08/29 09:33:41;;;;;;;12.02;3.38;;;21.00;99.90;;;;;;5051495;28;20044;-80
2022/08/29 09:36:10;;;;;;;10.80;3.58;;;21.10;99.90;;;;;;5050853;28;20037;-80
2022/08/29 09:38:36;;;;;;;13.13;3.40;;;21.10;99.90;;;;;;5051696;28;20415;-79
2022/08/29 09:41:06;;;;;;;8.90;2.88;;;21.00;99.90;;;;;;5051636;28;20033;-80
2022/08/29 09:43:38;;;;;;;10.98;3.60;;;20.90;99.90;;;;;;5051448;28;20045;-80
2022/08/29 09:46:06;;;;;;;9.52;3.65;;;21.00;99.90;;;;;;5051337;28;20558;-80
2022/08/29 09:48:33;;;;;;;9.65;3.28;;;21.20;99.90;;;;;;5051735;28;20048;-81
2022/08/29 09:51:18;;;;;;;10.05;3.70;;;21.30;99.90;;;;;;5051808;28;20039;-80
2022/08/29 09:53:44;;;;;;;10.10;3.42;;;21.30;99.90;;;;;;5051616;28;20163;-81
2022/08/29 09:56:18;;;;;;;10.77;3.25;;;21.40;99.90;;;;;;5051456;28;20045;-81
2022/08/29 09:58:44;;;;;;;7.00;2.90;;;21.40;99.90;;;;;;5050056;28;20051;-80
2022/08/29 10:01:19;;;;;;;9.77;3.20;;;21.40;99.90;;;;;;5051222;28;20033;-80
2022/08/29 10:03:57;;;;;;;8.35;3.00;;;21.30;99.90;;;;;;5051104;28;20037;-81
2022/08/29 10:06:25;;;;;;;7.03;3.08;;;21.30;99.90;;;;;;5051112;28;20159;-80
2022/08/29 10:09:00;;;;;;;6.85;3.13;;;21.30;99.90;;;;;;5051354;28;20044;-81
2022/08/29 10:11:29;;;;;;;7.00;2.92;;;21.30;99.90;;;;;;5051356;28;20045;-80
2022/08/29 10:14:09;;;;;;;9.15;3.28;;;21.30;99.90;;;;;;5051241;28;20094;-81
2022/08/29 10:20:04;;;;;;;10.43;3.13;;;21.20;99.90;;;;;;5020183;28;20454;-81
2022/08/29 10:23:05;;;;;;;9.52;2.97;;;21.30;99.90;;;;;;5031219;28;20100;-80
2022/08/29 10:25:34;;;;;;;8.18;3.10;;;21.30;99.90;;;;;;5020094;28;20059;-81
2022/08/29 10:28:12;;;;;;;6.53;3.03;;;21.20;99.90;;;;;;5035036;28;20037;-80
2022/08/29 10:30:48;;;;;;;10.23;3.10;;;21.20;99.90;;;;;;5052952;28;20043;-79
2022/08/29 10:33:44;;;;;;;6.20;2.70;;;21.20;99.90;;;;;;5051549;28;20040;-79
2022/08/29 10:36:17;;;;;;;7.47;2.85;;;21.10;99.90;;;;;;5050971;28;20052;-81
2022/08/29 10:38:50;;;;;;;7.90;2.85;;;21.10;99.90;;;;;;5051557;28;20442;-81
2022/08/29 10:41:43;;;;;;;11.13;3.25;;;21.20;99.90;;;;;;5050968;28;20494;-80
2022/08/29 10:44:24;;;;;;;7.72;3.10;;;21.20;99.90;;;;;;5050936;28;20048;-81
2022/08/29 10:46:56;;;;;;;12.30;3.03;;;21.20;99.90;;;;;;5034489;28;20520;-81
2022/08/29 10:49:48;;;;;;;7.25;2.78;;;21.30;99.90;;;;;;5053739;28;20072;-80
2022/08/29 10:52:27;;;;;;;12.98;3.03;;;21.40;99.90;;;;;;5054799;28;20095;-82
2022/08/29 10:55:21;;;;;;;12.70;3.00;;;21.50;99.90;;;;;;5055163;28;20499;-82
2022/08/29 10:57:56;;;;;;;8.70;2.72;;;21.50;99.90;;;;;;5038157;28;20044;-80
2022/08/29 11:00:27;;;;;;;10.27;3.05;;;21.60;99.90;;;;;;5054800;28;20567;-79
2022/08/29 11:03:16;;;;;;;7.85;2.92;;;21.60;99.90;;;;;;5055134;28;20044;-80
2022/08/29 11:05:47;;;;;;;10.52;3.17;;;21.50;99.90;;;;;;5054596;28;20126;-81
2022/08/29 11:08:20;;;;;;;10.68;2.75;;;21.60;99.90;;;;;;5055196;28;20491;-81
2022/08/29 11:10:50;;;;;;;10.13;2.85;;;21.70;99.90;;;;;;5038410;28;20041;-79
2022/08/29 11:13:31;;;;;;;13.00;3.03;;;21.70;99.90;;;;;;5054872;28;20044;-80
2022/08/29 11:16:24;;;;;;;10.13;3.50;;;21.60;99.90;;;;;;5054325;28;20049;-80
2022/08/29 11:19:09;;;;;;;10.93;3.47;;;21.50;99.90;;;;;;5054603;28;20048;-81
2022/08/29 11:21:41;;;;;;;9.82;3.15;;;21.40;99.90;;;;;;5055207;28;20045;-81
2022/08/29 11:24:09;;;;;;;10.63;2.95;;;21.20;99.90;;;;;;5054327;28;20040;-81
2022/08/29 11:26:51;;;;;;;11.00;3.10;;;21.10;99.90;;;;;;5054026;28;20041;-80
2022/08/29 11:29:29;;;;;;;8.63;3.05;;;21.20;99.90;;;;;;5030809;28;20516;-81
2022/08/29 11:32:07;;;;;;;11.00;2.80;;;21.20;99.90;;;;;;5049628;28;20114;-80
2022/08/29 11:35:19;;;;;;;9.55;3.10;;;21.20;99.90;;;;;;5043578;28;20075;-80
2022/08/29 11:37:47;;;;;;;9.05;2.78;;;21.30;99.90;;;;;;5038752;28;20167;-81
2022/08/29 11:40:51;;;;;;;10.45;3.58;;;21.20;99.90;;;;;;5052055;28;20048;-80
2022/08/29 11:43:25;;;;;;;11.88;3.13;;;21.20;99.90;;;;;;5051635;28;20152;-81
2022/08/29 11:45:58;;;;;;;8.55;2.80;;;21.20;99.90;;;;;;5053368;28;20048;-80
2022/08/29 11:48:43;;;;;;;11.67;3.03;;;21.20;99.90;;;;;;5025518;28;20392;-81
2022/08/29 11:51:40;;;;;;;10.38;3.15;;;21.20;99.90;;;;;;5051605;28;20037;-81
2022/08/29 11:54:34;;;;;;;7.53;2.83;;;21.10;99.90;;;;;;5054822;28;20033;-80
2022/08/29 11:57:00;;;;;;;7.07;2.80;;;21.10;99.90;;;;;;5014646;28;20052;-80
2022/08/29 11:59:48;;;;;;;7.50;3.10;;;21.00;99.90;;;;;;5048862;28;20045;-80
2022/08/29 12:02:26;;;;;;;7.75;3.03;;;21.10;99.90;;;;;;5050259;28;20045;-80
2022/08/29 12:04:53;;;;;;;8.25;3.10;;;21.10;99.90;;;;;;5051957;28;20040;-81
2022/08/29 12:07:32;;;;;;;8.13;2.67;;;21.10;99.90;;;;;;5050846;28;20124;-81
2022/08/29 12:09:59;;;;;;;9.35;3.15;;;21.10;99.90;;;;;;5031932;28;20033;-80
2022/08/29 12:12:42;;;;;;;10.95;2.55;;;21.10;99.90;;;;;;5052577;28;20107;-81
2022/08/29 12:15:26;;;;;;;10.47;2.80;;;21.20;99.90;;;;;;5036004;28;20376;-81
2022/08/29 12:18:01;;;;;;;8.32;2.72;;;21.20;99.90;;;;;;5053241;28;20166;-81
2022/08/29 12:20:29;;;;;;;8.73;2.90;;;21.30;99.90;;;;;;5048671;28;20067;-80
2022/08/29 12:22:55;;;;;;;8.93;3.03;;;21.40;99.90;;;;;;5053093;28;20056;-80
2022/08/29 12:25:27;;;;;;;10.25;3.25;;;21.40;99.90;;;;;;5045293;28;20067;-79
2022/08/29 12:28:16;;;;;;;8.23;3.00;;;21.50;99.90;;;;;;5042193;28;20040;-80
2022/08/29 12:31:06;;;;;;;5.72;2.33;;;21.60;99.90;;;;;;5032309;28;20040;-80
2022/08/29 12:34:06;;;;;;;7.55;2.90;;;21.70;99.90;;;;;;5034501;28;20037;-80
2022/08/29 12:37:10;;;;;;;5.65;2.47;;;21.80;99.90;;;;;;5048957;28;20047;-80
2022/08/29 12:40:20;;;;;;;7.47;2.80;;;21.90;99.90;;;;;;5048096;28;20055;-80
2022/08/29 12:43:06;;;;;;;6.20;2.70;;;22.10;99.90;;;;;;5046251;28;20041;-80
2022/08/29 12:45:34;;;;;;;4.70;2.47;;;22.20;99.90;;;;;;5048560;28;20056;-81
2022/08/29 12:48:19;;;;;;;6.22;2.42;;;22.40;99.90;;;;;;5046671;28;20040;-80
2022/08/29 12:50:47;;;;;;;8.48;2.83;;;22.60;99.90;;;;;;5049908;28;20033;-80
2022/08/29 12:53:31;;;;;;;8.07;2.95;;;22.80;99.90;;;;;;5054118;28;20048;-81
2022/08/29 12:56:00;;;;;;;8.85;2.78;;;22.90;99.90;;;;;;5052687;28;20115;-81
2022/08/29 12:58:56;;;;;;;6.13;2.65;;;22.90;99.90;;;;;;5052662;28;20515;-81
2022/08/29 13:01:28;;;;;;;5.53;2.30;;;23.00;99.90;;;;;;5051746;28;20052;-79
2022/08/29 13:04:13;;;;;;;4.70;2.13;;;23.00;99.90;;;;;;5051791;28;20044;-81
2022/08/29 13:06:59;;;;;;;6.35;2.60;;;23.00;99.90;;;;;;5052147;28;20083;-81
2022/08/29 13:09:27;;;;;;;10.18;2.72;;;23.10;99.90;;;;;;5041579;28;20044;-80